Time;durP1;ratioP1;P1;durP2;ratioP2;P2;SDS_P1;SDS_P2;PMS_P1;PMS_P2;Temp;Humidity;BMP_temperature;BMP_pressure;BME280_temperature;BME280_humidity;BME280_pressure;Samples;Min_cycle;Max_cycle;Signal;HPM_P1;HPM_P2
2022/05/28 00:01:15;;;;;;;11.98;7.97;;;;;;;17.30;nan;100184.16;5109476;28;20710;-68
2022/05/28 00:03:45;;;;;;;10.90;7.45;;;;;;;17.23;nan;100181.78;5111627;28;20394;-68
2022/05/28 00:06:16;;;;;;;12.70;7.88;;;;;;;17.22;nan;100193.53;5112174;28;20028;-69
2022/05/28 00:08:41;;;;;;;9.85;7.30;;;;;;;17.07;nan;100169.66;5111040;28;20047;-69
2022/05/28 00:11:25;;;;;;;11.13;7.03;;;;;;;17.14;nan;100186.13;5111223;28;20035;-67
2022/05/28 00:13:52;;;;;;;9.15;7.30;;;;;;;17.13;nan;100183.72;5106453;28;20493;-68
2022/05/28 00:16:18;;;;;;;10.73;6.55;;;;;;;16.99;nan;100168.34;5111287;28;20042;-68
2022/05/28 00:18:49;;;;;;;10.00;6.78;;;;;;;16.99;nan;100178.19;5107287;28;20039;-66
2022/05/28 00:21:15;;;;;;;13.85;7.25;;;;;;;16.92;nan;100167.06;5105432;28;20039;-69
2022/05/28 00:23:44;;;;;;;12.23;7.10;;;;;;;16.76;nan;100153.78;5111376;28;20040;-68
2022/05/28 00:26:09;;;;;;;9.57;6.67;;;;;;;16.69;nan;100145.31;5110979;28;20034;-69
2022/05/28 00:28:34;;;;;;;10.45;6.40;;;;;;;16.64;nan;100140.03;5111364;28;20276;-68
2022/05/28 00:31:01;;;;;;;10.10;7.05;;;;;;;16.76;nan;100147.66;5112114;28;20035;-69
2022/05/28 00:33:27;;;;;;;9.60;6.93;;;;;;;16.79;nan;100158.59;5085877;28;20036;-73
2022/05/28 00:35:53;;;;;;;9.77;6.82;;;;;;;16.51;nan;100111.34;5110206;28;20036;-72
2022/05/28 00:38:19;;;;;;;11.55;7.18;;;;;;;16.76;nan;100161.78;5111414;28;20036;-73
2022/05/28 00:40:46;;;;;;;10.73;6.70;;;;;;;16.74;nan;100157.78;5093021;28;20031;-72
2022/05/28 00:43:12;;;;;;;9.40;6.40;;;;;;;16.68;nan;100157.00;5109691;28;20044;-74
2022/05/28 00:45:39;;;;;;;10.30;6.97;;;;;;;16.65;nan;100162.88;5087014;28;20038;-72
2022/05/28 00:48:06;;;;;;;11.40;6.80;;;;;;;16.55;nan;100149.63;5093115;28;20032;-72
2022/05/28 00:50:34;;;;;;;11.13;6.47;;;;;;;16.51;nan;100161.84;5111766;28;20031;-68
2022/05/28 00:53:00;;;;;;;9.02;6.22;;;;;;;16.26;nan;100154.72;5110106;28;20836;-69
2022/05/28 00:55:26;;;;;;;16.02;6.57;;;;;;;16.32;nan;100164.28;5089544;28;20043;-68
2022/05/28 00:57:51;;;;;;;8.88;6.40;;;;;;;16.28;nan;100160.56;5111158;28;20042;-69
2022/05/28 01:00:21;;;;;;;11.30;5.72;;;;;;;16.30;nan;100164.53;5112032;28;20058;-70
2022/05/28 01:02:55;;;;;;;13.15;6.20;;;;;;;16.24;nan;100157.66;5110941;28;20115;-74
2022/05/28 01:05:39;;;;;;;13.77;6.30;;;;;;;16.15;nan;100148.63;5108997;28;20062;-74
2022/05/28 01:08:20;;;;;;;8.80;6.85;;;;;;;16.15;nan;100148.63;5110278;28;20124;-74
2022/05/28 01:10:57;;;;;;;13.07;7.10;;;;;;;16.02;nan;100122.59;5111113;28;20039;-73
2022/05/28 01:13:44;;;;;;;10.35;7.82;;;;;;;16.15;nan;100151.28;5110607;28;20031;-73
2022/05/28 01:16:19;;;;;;;9.32;7.25;;;;;;;16.14;nan;100149.69;5108200;28;20040;-73
2022/05/28 01:19:04;;;;;;;16.92;8.20;;;;;;;16.08;nan;100148.91;5103544;28;20036;-72
2022/05/28 01:22:12;;;;;;;15.82;7.90;;;;;;;16.09;nan;100145.19;5103354;28;20080;-73
2022/05/28 01:24:52;;;;;;;10.83;7.00;;;;;;;16.07;nan;100143.88;5105416;28;20038;-68
2022/05/28 01:27:23;;;;;;;10.85;6.57;;;;;;;15.97;nan;100138.53;5100793;28;20027;-74
2022/05/28 01:29:54;;;;;;;11.45;6.55;;;;;;;16.03;nan;100148.09;5110818;28;20497;-74
2022/05/28 01:32:23;;;;;;;9.93;5.30;;;;;;;16.04;nan;100153.16;5111532;28;20035;-73
2022/05/28 01:34:49;;;;;;;11.38;6.18;;;;;;;16.02;nan;100157.94;5108000;28;20084;-73
2022/05/28 01:37:16;;;;;;;9.15;5.65;;;;;;;16.02;nan;100154.47;5111198;28;20039;-72
2022/05/28 01:39:46;;;;;;;10.10;6.13;;;;;;;15.94;nan;100150.50;5108500;28;20108;-68
2022/05/28 01:42:14;;;;;;;10.02;5.85;;;;;;;15.91;nan;100140.41;5092637;28;20042;-68
2022/05/28 01:44:43;;;;;;;8.55;5.43;;;;;;;15.88;nan;100135.66;5108189;28;20122;-69
2022/05/28 01:47:11;;;;;;;8.98;5.47;;;;;;;15.90;nan;100136.19;5110541;28;20035;-68
2022/05/28 01:49:38;;;;;;;8.98;5.78;;;;;;;15.95;nan;100147.59;5107627;28;20065;-68
2022/05/28 01:52:04;;;;;;;7.88;5.35;;;;;;;15.90;nan;100139.63;5109554;28;20040;-68
2022/05/28 01:54:35;;;;;;;9.63;5.60;;;;;;;15.92;nan;100134.03;5109579;28;20097;-68
2022/05/28 01:57:01;;;;;;;10.00;5.35;;;;;;;15.86;nan;100159.78;5111204;28;20031;-68
2022/05/28 01:59:30;;;;;;;10.07;5.78;;;;;;;15.87;nan;100201.22;5109552;28;20028;-69
2022/05/28 02:01:56;;;;;;;;;;;;;;;15.91;nan;100183.69;5107600;28;21263;-69
2022/05/28 02:04:22;;;;;;;8.10;5.47;;;;;;;16.06;nan;100198.81;5109583;28;20330;-67
2022/05/28 02:06:48;;;;;;;10.63;5.30;;;;;;;16.10;nan;100188.47;5110888;28;20031;-69
2022/05/28 02:09:18;;;;;;;7.38;5.22;;;;;;;16.03;nan;100170.16;5091608;28;20031;-67
2022/05/28 02:12:05;;;;;;;7.00;4.70;;;;;;;16.21;nan;100191.91;5109666;28;20047;-69
2022/05/28 02:14:56;;;;;;;7.45;4.65;;;;;;;16.24;nan;100186.88;5103649;28;20036;-68
2022/05/28 02:17:49;;;;;;;7.68;4.53;;;;;;;16.28;nan;100176.50;5108824;28;20071;-68
2022/05/28 02:20:39;;;;;;;7.45;4.85;;;;;;;16.25;nan;100177.03;5110760;28;20028;-68
2022/05/28 02:23:12;;;;;;;8.65;5.00;;;;;;;16.29;nan;100196.69;5095430;28;20165;-68
2022/05/28 02:25:53;;;;;;;6.82;4.68;;;;;;;16.31;nan;100195.38;5113631;28;20035;-68
2022/05/28 02:28:23;;;;;;;8.77;5.22;;;;;;;16.25;nan;100199.09;5113100;28;20034;-66
2022/05/28 02:30:56;;;;;;;7.85;5.53;;;;;;;16.29;nan;100210.00;5111368;28;20028;-67
2022/05/28 02:33:22;;;;;;;8.13;5.05;;;;;;;16.26;nan;100208.66;5107058;28;20035;-68
2022/05/28 02:35:48;;;;;;;7.72;5.22;;;;;;;16.27;nan;100202.28;5087236;28;20047;-68
2022/05/28 02:38:14;;;;;;;10.85;5.60;;;;;;;16.42;nan;100200.66;5112693;28;20043;-68
2022/05/28 02:40:41;;;;;;;7.75;4.82;;;;;;;16.54;nan;100209.13;5095792;28;20131;-69
2022/05/28 02:43:06;;;;;;;10.70;4.90;;;;;;;16.51;nan;100194.53;5112435;28;20043;-68
2022/05/28 02:45:32;;;;;;;10.52;4.72;;;;;;;16.73;nan;100220.78;5092363;28;20040;-67
2022/05/28 02:47:57;;;;;;;9.30;4.88;;;;;;;16.68;nan;100199.53;5109509;28;20050;-69
2022/05/28 02:50:28;;;;;;;10.05;5.22;;;;;;;16.75;nan;100194.72;5112380;28;20077;-68
2022/05/28 02:52:55;;;;;;;9.05;5.55;;;;;;;16.86;nan;100202.72;5091195;28;20504;-69
2022/05/28 02:55:22;;;;;;;7.60;4.43;;;;;;;16.92;nan;100198.97;5110848;28;20385;-68
2022/05/28 02:57:47;;;;;;;7.82;4.85;;;;;;;16.93;nan;100189.94;5113488;28;20144;-69
2022/05/28 03:00:14;;;;;;;6.97;3.97;;;;;;;16.86;nan;100160.97;5113750;28;20534;-67
2022/05/28 03:02:41;;;;;;;7.57;4.05;;;;;;;16.95;nan;100166.50;5112756;28;20131;-68
2022/05/28 03:05:07;;;;;;;6.13;3.50;;;;;;;16.92;nan;100161.72;5089598;28;20046;-67
2022/05/28 03:07:32;;;;;;;5.72;3.28;;;;;;;16.91;nan;100170.78;5108621;28;20031;-68
2022/05/28 03:09:58;;;;;;;10.88;3.83;;;;;;;16.88;nan;100173.97;5091054;28;20028;-68
2022/05/28 03:12:23;;;;;;;4.88;3.38;;;;;;;16.90;nan;100177.94;5112314;28;20031;-68
2022/05/28 03:14:48;;;;;;;10.13;3.00;;;;;;;16.95;nan;100209.06;5108151;28;20031;-69
2022/05/28 03:17:14;;;;;;;8.38;3.35;;;;;;;16.87;nan;100206.97;5108238;28;20032;-68
2022/05/28 03:19:39;;;;;;;7.40;3.72;;;;;;;16.94;nan;100218.91;5111677;28;20115;-68
2022/05/28 03:22:05;;;;;;;5.40;3.50;;;;;;;16.97;nan;100221.00;5112940;28;20163;-68
2022/05/28 03:24:30;;;;;;;10.23;3.30;;;;;;;17.00;nan;100225.03;5091863;28;20057;-67
2022/05/28 03:26:57;;;;;;;5.20;3.30;;;;;;;16.97;nan;100223.66;5113512;28;20064;-68
2022/05/28 03:29:24;;;;;;;6.20;3.17;;;;;;;16.99;nan;100242.81;5089793;28;20024;-67
2022/05/28 03:31:49;;;;;;;3.67;2.63;;;;;;;16.99;nan;100242.81;5107825;28;20043;-68
2022/05/28 03:34:15;;;;;;;6.40;2.70;;;;;;;17.05;nan;100269.41;5089235;28;20031;-67
2022/05/28 03:36:40;;;;;;;6.53;2.95;;;;;;;17.03;nan;100275.00;5112886;28;20080;-68
2022/05/28 03:39:06;;;;;;;6.18;3.10;;;;;;;17.06;nan;100263.03;5109547;28;20418;-68
2022/05/28 03:41:32;;;;;;;5.03;3.20;;;;;;;17.11;nan;100265.66;5113537;28;20027;-69
2022/05/28 03:43:58;;;;;;;5.53;2.67;;;;;;;17.14;nan;100257.97;5111527;28;20059;-69
2022/05/28 03:46:35;;;;;;;3.53;2.47;;;;;;;17.12;nan;100260.09;5108785;28;20067;-68
2022/05/28 03:49:10;;;;;;;3.20;2.35;;;;;;;17.20;nan;100270.16;5108894;28;20042;-68
2022/05/28 03:51:36;;;;;;;8.18;2.85;;;;;;;17.15;nan;100264.06;5110331;28;20146;-68
2022/05/28 03:54:02;;;;;;;4.43;2.70;;;;;;;17.22;nan;100278.66;5108503;28;20449;-69
2022/05/28 03:56:33;;;;;;;5.15;2.75;;;;;;;17.28;nan;100286.63;5112653;28;20496;-69
2022/05/28 03:58:59;;;;;;;8.82;2.83;;;;;;;17.26;nan;100273.59;5111671;28;20058;-68
2022/05/28 04:01:24;;;;;;;3.55;2.20;;;;;;;17.23;nan;100277.59;5109900;28;20114;-68
2022/05/28 04:03:49;;;;;;;4.93;2.45;;;;;;;17.19;nan;100268.59;5109773;28;20047;-69
2022/05/28 04:06:15;;;;;;;4.18;2.55;;;;;;;17.18;nan;100279.47;5112303;28;20642;-68
2022/05/28 04:08:40;;;;;;;2.90;2.50;;;;;;;17.22;nan;100278.66;5109006;28;20031;-67
2022/05/28 04:11:06;;;;;;;7.03;2.78;;;;;;;17.26;nan;100284.22;5110940;28;20084;-68
2022/05/28 04:13:32;;;;;;;4.07;2.42;;;;;;;17.30;nan;100281.84;5110033;28;20059;-68
2022/05/28 04:15:57;;;;;;;3.35;2.50;;;;;;;17.29;nan;100283.72;5067230;28;20046;-69
2022/05/28 04:18:23;;;;;;;3.05;2.42;;;;;;;17.27;nan;100285.06;5085710;28;20414;-68
2022/05/28 04:20:49;;;;;;;6.22;2.55;;;;;;;17.27;nan;100290.38;5107989;28;20046;-69
2022/05/28 04:23:15;;;;;;;4.00;2.28;;;;;;;17.19;nan;100281.88;5107787;28;20447;-68
2022/05/28 04:25:40;;;;;;;4.05;2.20;;;;;;;17.17;nan;100307.19;5091566;28;20127;-69
2022/05/28 04:28:06;;;;;;;4.93;2.38;;;;;;;17.25;nan;100351.84;5092815;28;20108;-68
2022/05/28 04:30:31;;;;;;;5.07;2.78;;;;;;;17.26;nan;100389.88;5108958;28;20027;-69
2022/05/28 04:32:57;;;;;;;6.38;2.40;;;;;;;17.22;nan;100401.09;5110883;28;20108;-68
2022/05/28 04:35:22;;;;;;;6.80;2.58;;;;;;;17.12;nan;100379.81;5104178;28;20042;-68
2022/05/28 04:37:47;;;;;;;15.27;2.80;;;;;;;16.95;nan;100336.72;5084413;28;20044;-67
2022/05/28 04:40:13;;;;;;;7.70;2.80;;;;;;;16.72;nan;100293.66;5089638;28;20046;-69
2022/05/28 04:42:38;;;;;;;4.47;2.30;;;;;;;16.60;nan;100258.59;5090832;28;20032;-69
2022/05/28 04:45:04;;;;;;;6.10;2.65;;;;;;;16.51;nan;100237.06;5086145;28;20028;-68
2022/05/28 04:47:30;;;;;;;7.10;2.60;;;;;;;16.40;nan;100169.06;5089708;28;20028;-68
2022/05/28 04:49:55;;;;;;;6.20;2.60;;;;;;;16.30;nan;100145.94;5083888;28;20042;-68
2022/05/28 04:52:21;;;;;;;6.55;3.20;;;;;;;16.20;nan;100140.66;5086709;28;20097;-68
2022/05/28 04:54:47;;;;;;;15.55;3.00;;;;;;;16.13;nan;100132.16;5089688;28;20028;-67
2022/05/28 04:57:14;;;;;;;6.60;2.60;;;;;;;16.10;nan;100157.41;5091384;28;20043;-68
2022/05/28 04:59:39;;;;;;;10.10;2.70;;;;;;;15.94;nan;100179.72;5090497;28;20047;-65
2022/05/28 05:02:06;;;;;;;7.60;3.40;;;;;;;15.81;nan;100215.56;5085609;28;20044;-65
2022/05/28 05:04:32;;;;;;;7.63;2.95;;;;;;;15.76;nan;100226.16;5089823;28;20049;-67
2022/05/28 05:06:57;;;;;;;5.20;3.08;;;;;;;15.70;nan;100235.19;5090855;28;20040;-72
2022/05/28 05:09:23;;;;;;;8.40;3.30;;;;;;;15.56;nan;100234.84;5088807;28;20036;-73
2022/05/28 05:11:48;;;;;;;5.82;3.22;;;;;;;15.64;nan;100255.59;5086092;28;20039;-73
2022/05/28 05:14:14;;;;;;;5.05;3.25;;;;;;;15.47;nan;100241.75;5087653;28;20398;-73
2022/05/28 05:16:39;;;;;;;7.63;3.70;;;;;;;15.60;nan;100259.03;5086803;28;20036;-68
2022/05/28 05:19:04;;;;;;;5.97;3.00;;;;;;;15.55;nan;100248.41;5086945;28;20502;-68
2022/05/28 05:21:30;;;;;;;5.68;4.18;;;;;;;15.56;nan;100258.72;5084295;28;20035;-66
2022/05/28 05:23:56;;;;;;;10.25;4.20;;;;;;;15.45;nan;100259.78;5089797;28;20035;-66
2022/05/28 05:26:22;;;;;;;8.23;4.00;;;;;;;15.49;nan;100261.66;5088913;28;20154;-66
2022/05/28 05:28:48;;;;;;;9.30;3.78;;;;;;;15.48;nan;100264.56;5090881;28;20032;-67
2022/05/28 05:31:14;;;;;;;5.03;3.78;;;;;;;15.46;nan;100258.72;5089986;28;20115;-68
2022/05/28 05:33:40;;;;;;;5.18;3.78;;;;;;;15.50;nan;100265.88;5090354;28;20659;-69
2022/05/28 05:36:06;;;;;;;5.30;3.65;;;;;;;15.48;nan;100260.03;5088352;28;20694;-66
2022/05/28 05:38:31;;;;;;;5.57;3.72;;;;;;;15.44;nan;100255.50;5110604;28;20073;-68
2022/05/28 05:40:57;;;;;;;6.03;3.30;;;;;;;15.42;nan;100255.78;5111170;28;20030;-69
2022/05/28 05:43:22;;;;;;;5.53;3.95;;;;;;;15.44;nan;100264.28;5091614;28;20092;-68
2022/05/28 05:45:53;;;;;;;5.95;4.05;;;;;;;15.22;nan;100227.31;5104547;28;20059;-68
2022/05/28 05:48:18;;;;;;;6.63;3.70;;;;;;;15.21;nan;100220.44;5108254;28;20119;-68
2022/05/28 05:50:44;;;;;;;6.03;4.30;;;;;;;15.43;nan;100262.69;5108785;28;20119;-68
2022/05/28 05:53:09;;;;;;;8.60;3.92;;;;;;;15.34;nan;100244.88;5108488;28;20110;-68
2022/05/28 05:55:34;;;;;;;6.45;3.78;;;;;;;15.44;nan;100264.28;5090361;28;20032;-69
2022/05/28 05:58:00;;;;;;;6.85;4.20;;;;;;;15.49;nan;100276.75;5104168;28;20028;-68
2022/05/28 06:00:25;;;;;;;5.82;3.63;;;;;;;15.45;nan;100265.88;5108218;28;20669;-68
2022/05/28 06:02:51;;;;;;;7.07;3.85;;;;;;;15.52;nan;100285.00;5106166;28;20445;-69
2022/05/28 06:05:16;;;;;;;7.68;4.00;;;;;;;15.42;nan;100262.94;5101432;28;20032;-69
2022/05/28 06:07:41;;;;;;;5.47;3.78;;;;;;;15.30;nan;100249.91;5065556;28;20025;-68
2022/05/28 06:10:11;;;;;;;6.00;3.78;;;;;;;15.58;nan;100300.94;5103320;28;20085;-66
2022/05/28 06:12:37;;;;;;;5.30;3.97;;;;;;;15.56;nan;100305.72;5102391;28;20084;-66
2022/05/28 06:15:03;;;;;;;6.32;4.00;;;;;;;15.49;nan;100290.03;5097812;28;20031;-66
2022/05/28 06:17:30;;;;;;;6.03;3.47;;;;;;;15.54;nan;100292.72;5102533;28;20038;-66
2022/05/28 06:19:55;;;;;;;4.75;3.70;;;;;;;15.58;nan;100301.75;5082256;28;20036;-67
2022/05/28 06:22:21;;;;;;;5.32;3.90;;;;;;;15.50;nan;100294.28;5101350;28;20036;-67
2022/05/28 06:24:46;;;;;;;9.85;3.50;;;;;;;15.56;nan;100295.88;5095561;28;20404;-67
2022/05/28 06:27:11;;;;;;;7.45;3.90;;;;;;;15.66;nan;100295.16;5095202;28;20047;-67
2022/05/28 06:29:37;;;;;;;5.28;3.35;;;;;;;15.61;nan;100276.53;5095262;28;20071;-67
2022/05/28 06:32:02;;;;;;;6.88;3.58;;;;;;;15.70;nan;100285.63;5080581;28;20565;-68
2022/05/28 06:34:28;;;;;;;8.57;3.80;;;;;;;15.44;nan;100244.91;5101829;28;20032;-69
2022/05/28 06:36:53;;;;;;;5.70;3.65;;;;;;;15.69;nan;100279.47;5101923;28;20458;-67
2022/05/28 06:39:19;;;;;;;4.78;3.53;;;;;;;15.67;nan;100281.59;5103103;28;20024;-68
2022/05/28 06:41:45;;;;;;;5.35;3.92;;;;;;;15.67;nan;100280.81;5085492;28;20058;-68
2022/05/28 06:44:10;;;;;;;8.55;4.25;;;;;;;15.72;nan;100281.63;5103034;28;20977;-68
2022/05/28 06:46:35;;;;;;;5.35;3.90;;;;;;;15.77;nan;100280.84;5098605;28;20031;-68
2022/05/28 06:49:01;;;;;;;9.48;4.30;;;;;;;15.84;nan;100292.03;5105792;28;20040;-72
2022/05/28 06:51:26;;;;;;;6.85;4.13;;;;;;;15.90;nan;100295.50;5108637;28;20258;-70
2022/05/28 06:53:52;;;;;;;9.85;5.15;;;;;;;15.90;nan;100277.72;5093178;28;20035;-71
2022/05/28 06:56:18;;;;;;;7.25;5.00;;;;;;;15.94;nan;100285.94;5114111;28;20030;-71
2022/05/28 06:58:44;;;;;;;8.10;4.82;;;;;;;16.01;nan;100293.66;5107590;28;20454;-72
2022/05/28 07:01:11;;;;;;;7.70;4.95;;;;;;;16.00;nan;100290.22;5113130;28;20111;-74
2022/05/28 07:03:39;;;;;;;9.55;4.55;;;;;;;16.03;nan;100291.53;5092870;28;20050;-70
2022/05/28 07:06:05;;;;;;;5.57;3.65;;;;;;;16.15;nan;100311.47;5111231;28;20122;-70
2022/05/28 07:08:30;;;;;;;4.57;3.38;;;;;;;16.16;nan;100307.75;5110247;28;20136;-71
2022/05/28 07:10:59;;;;;;;7.10;2.88;;;;;;;16.15;nan;100314.13;5111065;28;20052;-71
2022/05/28 07:13:26;;;;;;;4.68;3.00;;;;;;;16.30;nan;100331.16;5094668;28;20394;-71
2022/05/28 07:15:52;;;;;;;6.63;2.90;;;;;;;16.24;nan;100319.72;5090502;28;20042;-71
2022/05/28 07:18:18;;;;;;;4.72;2.65;;;;;;;16.31;nan;100322.91;5112845;28;20016;-71
2022/05/28 07:20:44;;;;;;;4.15;2.83;;;;;;;16.35;nan;100318.69;5094223;28;20042;-71
2022/05/28 07:23:15;;;;;;;5.47;2.50;;;;;;;16.52;nan;100344.16;5094579;28;20043;-71
2022/05/28 07:25:41;;;;;;;5.72;2.70;;;;;;;16.53;nan;100330.63;5110814;28;20043;-71
2022/05/28 07:28:25;;;;;;;4.28;2.67;;;;;;;16.61;nan;100333.81;5112631;28;20067;-72
2022/05/28 07:30:56;;;;;;;2.78;2.50;;;;;;;16.67;nan;100346.06;5108761;28;20051;-72
2022/05/28 07:33:24;;;;;;;6.47;3.08;;;;;;;16.74;nan;100360.66;5113129;28;20032;-72
2022/05/28 07:35:50;;;;;;;6.43;3.38;;;;;;;16.77;nan;100362.78;5111673;28;20140;-70
2022/05/28 07:38:16;;;;;;;3.92;3.40;;;;;;;16.76;nan;100371.84;5094595;28;20135;-69
2022/05/28 07:40:41;;;;;;;6.43;3.97;;;;;;;16.75;nan;100367.56;5113416;28;20044;-71
2022/05/28 07:43:07;;;;;;;8.20;4.05;;;;;;;16.75;nan;100383.53;5113057;28;20538;-71
2022/05/28 07:45:37;;;;;;;6.68;3.90;;;;;;;16.72;nan;100380.63;5107507;28;20088;-70
2022/05/28 07:48:02;;;;;;;6.00;3.30;;;;;;;16.78;nan;100390.16;5111938;28;20028;-71
2022/05/28 07:50:28;;;;;;;6.57;3.70;;;;;;;16.73;nan;100380.34;5112766;28;20028;-71
2022/05/28 07:52:53;;;;;;;4.13;3.47;;;;;;;16.72;nan;100384.06;5107164;28;20035;-70
2022/05/28 07:55:19;;;;;;;8.18;3.85;;;;;;;16.74;nan;100381.94;5114743;28;20362;-71
2022/05/28 07:57:44;;;;;;;6.68;4.10;;;;;;;16.76;nan;100371.84;5112000;28;20503;-71
2022/05/28 08:00:10;;;;;;;7.10;4.68;;;;;;;16.86;nan;100378.25;5112714;28;20043;-72
2022/05/28 08:02:36;;;;;;;9.55;5.32;;;;;;;16.83;nan;100362.81;5113529;28;20535;-72
2022/05/28 08:05:01;;;;;;;10.52;4.68;;;;;;;16.86;nan;100365.75;5092571;28;20070;-71
2022/05/28 08:07:26;;;;;;;8.95;4.70;;;;;;;16.79;nan;100351.94;5110993;28;20028;-71
2022/05/28 08:09:52;;;;;;;11.45;4.60;;;;;;;16.75;nan;100358.81;5105014;28;20165;-71
2022/05/28 08:12:17;;;;;;;7.20;3.90;;;;;;;16.62;nan;100354.81;5089433;28;20027;-71
2022/05/28 08:14:42;;;;;;;7.85;3.70;;;;;;;16.46;nan;100361.19;5112361;28;20031;-71
2022/05/28 08:17:08;;;;;;;7.00;3.80;;;;;;;16.58;nan;100380.34;5094461;28;20019;-71
2022/05/28 08:19:34;;;;;;;6.88;4.32;;;;;;;16.66;nan;100381.66;5111798;28;20441;-72
2022/05/28 08:24:43;;;;;;;9.40;3.78;;;;;;;16.43;nan;100383.78;5108574;28;20396;-72
2022/05/28 08:27:08;;;;;;;5.50;4.43;;;;;;;16.43;nan;100393.63;5112827;28;20034;-70
2022/05/28 08:29:34;;;;;;;5.97;4.15;;;;;;;16.35;nan;100398.41;5112134;28;20389;-71
2022/05/28 08:31:59;;;;;;;5.32;3.80;;;;;;;16.35;nan;100392.25;5094036;28;20111;-71
2022/05/28 08:34:25;;;;;;;5.75;3.15;;;;;;;16.25;nan;100390.38;5110320;28;20035;-71
2022/05/28 08:36:50;;;;;;;6.70;3.40;;;;;;;16.17;nan;100390.91;5110643;28;20497;-71
2022/05/28 08:39:16;;;;;;;6.90;3.55;;;;;;;16.29;nan;100404.75;5101770;28;20031;-70
2022/05/28 08:41:46;;;;;;;5.88;3.95;;;;;;;16.31;nan;100413.25;5107083;28;20048;-73
2022/05/28 08:44:19;;;;;;;5.90;3.78;;;;;;;16.38;nan;100421.78;5107797;28;20027;-71
2022/05/28 08:46:52;;;;;;;5.47;3.78;;;;;;;16.28;nan;100416.44;5082742;28;20032;-69
2022/05/28 08:49:21;;;;;;;6.00;2.95;;;;;;;16.25;nan;100424.94;5108116;28;20031;-69
2022/05/28 08:51:49;;;;;;;;;;;;;;;16.29;nan;100433.19;5108629;28;20038;-70
2022/05/28 08:54:40;;;;;;;4.93;3.60;;;;;;;16.27;nan;100428.13;5107613;28;20034;-70
2022/05/28 08:57:18;;;;;;;5.88;3.72;;;;;;;16.28;nan;100412.97;5111728;28;20028;-70
2022/05/28 08:59:49;;;;;;;6.32;3.63;;;;;;;16.40;nan;100413.56;5109838;28;20028;-72
2022/05/28 09:02:27;;;;;;;7.85;3.90;;;;;;;16.32;nan;100414.06;5111708;28;20032;-71
2022/05/28 09:04:55;;;;;;;4.50;3.75;;;;;;;16.24;nan;100411.91;5094976;28;20036;-71
2022/05/28 09:07:22;;;;;;;5.82;4.03;;;;;;;16.09;nan;100404.69;5112043;28;20028;-71
2022/05/28 09:09:49;;;;;;;8.80;4.35;;;;;;;16.35;nan;100445.41;5112620;28;20032;-72
2022/05/28 09:12:17;;;;;;;9.43;5.25;;;;;;;16.36;nan;100452.34;5109566;28;20019;-70
2022/05/28 09:14:42;;;;;;;6.70;4.05;;;;;;;16.14;nan;100410.03;5111424;28;20039;-69
2022/05/28 09:17:34;;;;;;;10.70;4.40;;;;;;;16.23;nan;100427.03;5111914;28;20024;-69
2022/05/28 09:20:08;;;;;;;8.07;4.78;;;;;;;16.15;nan;100423.03;5111390;28;20066;-70
2022/05/28 09:22:33;;;;;;;9.00;5.10;;;;;;;16.12;nan;100409.50;5111745;28;20076;-69
2022/05/28 09:24:59;;;;;;;6.50;4.72;;;;;;;16.11;nan;100415.84;5112491;28;20028;-69
2022/05/28 09:27:49;;;;;;;8.07;4.13;;;;;;;16.15;nan;100431.00;5111041;28;20034;-70
2022/05/28 09:30:36;;;;;;;6.70;4.18;;;;;;;16.14;nan;100444.56;5105231;28;20046;-70
2022/05/28 09:33:40;;;;;;;7.13;4.40;;;;;;;16.12;nan;100452.00;5108482;28;20043;-71
2022/05/28 09:36:29;;;;;;;6.85;5.45;;;;;;;16.12;nan;100439.50;5091115;28;20063;-70
2022/05/28 09:39:05;;;;;;;8.57;5.63;;;;;;;16.13;nan;100433.13;5077646;28;20044;-71
2022/05/28 09:41:40;;;;;;;9.05;6.25;;;;;;;16.19;nan;100426.00;5102487;28;20381;-71
2022/05/28 09:44:23;;;;;;;10.27;6.30;;;;;;;16.17;nan;100430.75;5102051;28;20126;-71
2022/05/28 09:46:49;;;;;;;8.15;6.07;;;;;;;16.10;nan;100423.03;5103713;28;20032;-71
2022/05/28 09:49:19;;;;;;;9.82;6.00;;;;;;;16.14;nan;100436.59;5107011;28;20081;-71
2022/05/28 09:51:55;;;;;;;8.63;5.88;;;;;;;16.03;nan;100425.13;5099846;28;20499;-70
2022/05/28 09:54:25;;;;;;;8.95;6.05;;;;;;;16.12;nan;100452.78;5103321;28;20036;-71
2022/05/28 09:57:09;;;;;;;8.32;5.10;;;;;;;16.00;nan;100440.81;5093789;28;20054;-72
2022/05/28 09:59:37;;;;;;;8.27;4.80;;;;;;;16.04;nan;100458.63;5083295;28;20035;-70
2022/05/28 10:02:22;;;;;;;6.30;4.82;;;;;;;16.04;nan;100460.44;5081145;28;20114;-70
2022/05/28 10:05:08;;;;;;;6.88;4.90;;;;;;;16.00;nan;100470.81;5096042;28;20087;-70
2022/05/28 10:07:46;;;;;;;9.25;5.35;;;;;;;16.05;nan;100481.44;5078791;28;20042;-69
2022/05/28 10:10:17;;;;;;;6.72;5.70;;;;;;;16.00;nan;100481.44;5098241;28;20423;-72
2022/05/28 10:12:44;;;;;;;8.65;6.25;;;;;;;16.01;nan;100479.56;5099630;28;20034;-72
2022/05/28 10:15:16;;;;;;;11.85;6.93;;;;;;;16.14;nan;100493.19;5096775;28;20031;-71
2022/05/28 10:17:51;;;;;;;6.75;5.32;;;;;;;16.16;nan;100492.91;5097475;28;20749;-71
2022/05/28 10:20:19;;;;;;;10.18;5.38;;;;;;;16.15;nan;100486.81;5079999;28;20032;-70
2022/05/28 10:22:50;;;;;;;6.50;5.13;;;;;;;16.09;nan;100479.88;5101349;28;20036;-71
2022/05/28 10:25:41;;;;;;;6.50;5.38;;;;;;;15.89;nan;100454.00;5102979;28;20032;-71
2022/05/28 10:28:09;;;;;;;6.65;5.72;;;;;;;15.82;nan;100434.88;5102237;28;20039;-71
2022/05/28 10:30:36;;;;;;;8.48;5.45;;;;;;;15.79;nan;100443.34;5108558;28;20035;-71
2022/05/28 10:33:08;;;;;;;12.02;5.22;;;;;;;15.74;nan;100430.06;5106765;28;20057;-72
2022/05/28 10:35:34;;;;;;;10.32;6.05;;;;;;;15.73;nan;100428.47;5106167;28;20032;-72
2022/05/28 10:38:14;;;;;;;8.82;6.22;;;;;;;15.77;nan;100434.84;5105877;28;20493;-71
2022/05/28 10:40:57;;;;;;;9.23;6.22;;;;;;;15.84;nan;100445.25;5085203;28;20059;-72
2022/05/28 10:43:28;;;;;;;8.20;6.72;;;;;;;15.95;nan;100450.34;5106163;28;20063;-72
2022/05/28 10:46:18;;;;;;;8.68;6.72;;;;;;;16.06;nan;100459.13;5086992;28;20036;-72
2022/05/28 10:48:50;;;;;;;11.00;6.72;;;;;;;16.12;nan;100458.09;5103823;28;20036;-71
2022/05/28 10:51:18;;;;;;;9.82;6.40;;;;;;;16.06;nan;100463.66;5105566;28;20038;-71
2022/05/28 10:53:50;;;;;;;7.32;5.43;;;;;;;16.12;nan;100473.25;5106102;28;20488;-71
2022/05/28 10:56:44;;;;;;;5.95;5.35;;;;;;;16.13;nan;100482.81;5106461;28;20062;-70
2022/05/28 10:59:33;;;;;;;10.55;7.13;;;;;;;16.13;nan;100494.22;5087507;28;20080;-71
2022/05/28 11:02:26;;;;;;;7.67;6.23;;;;;;;16.14;nan;100493.19;5102114;28;20047;-71
2022/05/28 11:05:47;;;;;;;8.88;5.85;;;;;;;16.13;nan;100496.09;5098106;28;20040;-71
2022/05/28 11:08:39;;;;;;;9.40;5.85;;;;;;;16.13;nan;100474.84;4990798;28;20537;-72
2022/05/28 11:11:24;;;;;;;8.73;6.43;;;;;;;16.06;nan;100445.84;5011261;28;20444;-71
2022/05/28 11:14:19;;;;;;;6.88;5.70;;;;;;;16.02;nan;100441.31;5000593;28;20061;-72
2022/05/28 11:16:57;;;;;;;7.18;6.28;;;;;;;16.00;nan;100448.78;5017731;28;20050;-72
2022/05/28 11:19:28;;;;;;;9.35;6.45;;;;;;;16.01;nan;100447.69;5013886;28;20037;-72
2022/05/28 11:22:04;;;;;;;8.07;5.97;;;;;;;15.81;nan;100430.63;5017193;28;20084;-71
2022/05/28 11:24:33;;;;;;;11.25;5.90;;;;;;;15.83;nan;100444.44;5022091;28;20569;-70
2022/05/28 11:27:11;;;;;;;9.27;6.82;;;;;;;15.64;nan;100414.84;5003041;28;20045;-71
2022/05/28 11:29:52;;;;;;;8.43;6.55;;;;;;;15.74;nan;100427.41;4997057;28;20536;-70
2022/05/28 11:32:26;;;;;;;8.75;6.78;;;;;;;15.73;nan;100420.50;5011897;28;20049;-71
2022/05/28 11:34:56;;;;;;;9.23;6.45;;;;;;;15.70;nan;100419.16;5003754;28;20042;-72
2022/05/28 11:37:27;;;;;;;9.07;5.75;;;;;;;15.61;nan;100441.91;5013859;28;20073;-71
2022/05/28 11:40:05;;;;;;;5.38;3.92;;;;;;;15.62;nan;100430.22;5007430;28;20037;-71
2022/05/28 11:42:35;;;;;;;6.97;4.03;;;;;;;15.56;nan;100427.81;5008736;28;20033;-72
2022/05/28 11:45:05;;;;;;;6.70;5.20;;;;;;;15.52;nan;100414.25;5060310;28;20071;-72
2022/05/28 11:47:48;;;;;;;9.90;4.40;;;;;;;15.58;nan;100410.56;5068892;28;20039;-73
2022/05/28 11:53:31;;;;;;;7.03;3.80;;;;;;;15.67;nan;100402.91;5071430;28;20029;-72
2022/05/28 11:56:04;;;;;;;6.78;4.35;;;;;;;15.70;nan;100405.88;5071176;28;20509;-72
2022/05/28 11:58:35;;;;;;;7.15;4.63;;;;;;;15.75;nan;100423.69;5062282;28;20113;-71
2022/05/28 12:01:08;;;;;;;5.70;3.00;;;;;;;15.64;nan;100414.06;5065108;28;20060;-71